Station Historical Data
Daily Summary for July 24, 2012 Units:  English    Metric   Both
« Previous Day
Next Day »
Daily Weekly Monthly Yearly Custom
  High: Low: Average:
Temperature: 90.9 °F 72.7 °F 81.7 °F
Dew Point: 78.1 °F 70.2 °F 74.1 °F
Humidity: 92% 58% 79%
Wind Speed: 11.0mph 0.0mph 2.3mph
Wind Gust: 13.0mph - -
Wind- - WSW
Pressure: 30.07 in 29.91 in -
Precipitation: 0.00 in    
Historical Graphs
 
 
Tabular Data for July 24, 2012
Time Temperature Dew Point Pressure Wind Wind Speed Wind Gust Humidity Rainfall Rate (Hourly) Conditions
00:00 76.9 °F 72.4 °F 30.05 in Calm     86% 0.00 in
00:01 76.9 °F 72.4 °F 30.05 in Calm     86% 0.00 in
00:06 76.8 °F 72.6 °F 30.05 in Calm     87% 0.00 in
00:11 76.7 °F 72.5 °F 30.05 in Calm     87% 0.00 in
00:16 76.5 °F 72.3 °F 30.05 in Calm     87% 0.00 in
00:21 76.3 °F 72.5 °F 30.05 in Calm     88% 0.00 in
00:26 76.2 °F 72.4 °F 30.05 in Calm     88% 0.00 in
00:31 76.0 °F 72.5 °F 30.05 in Calm     89% 0.00 in
00:36 76.0 °F 72.5 °F 30.05 in Calm     89% 0.00 in
00:42 76.2 °F 72.4 °F 30.05 in Calm     88% 0.00 in
00:47 76.4 °F 72.6 °F 30.05 in Calm     88% 0.00 in
00:52 76.2 °F 72.4 °F 30.05 in Calm     88% 0.00 in
00:57 76.1 °F 72.6 °F 30.05 in Calm     89% 0.00 in
01:02 75.9 °F 72.4 °F 30.05 in Calm   1.0 mph 89% 0.00 in
01:07 75.7 °F 72.2 °F 30.05 in Calm     89% 0.00 in
01:12 75.4 °F 72.3 °F 30.05 in Calm     90% 0.00 in
01:17 75.0 °F 71.9 °F 30.04 in Calm     90% 0.00 in
01:22 74.8 °F 72.0 °F 30.05 in Calm     91% 0.00 in
01:27 74.7 °F 71.9 °F 30.04 in Calm     91% 0.00 in
01:32 74.6 °F 71.8 °F 30.04 in Calm     91% 0.00 in
01:37 74.4 °F 71.6 °F 30.05 in Calm     91% 0.00 in
01:42 74.5 °F 72.0 °F 30.04 in Calm     92% 0.00 in
01:47 74.8 °F 72.0 °F 30.04 in Calm   1.0 mph 91% 0.00 in
01:52 75.0 °F 72.2 °F 30.04 in Calm   1.0 mph 91% 0.00 in
01:57 75.0 °F 72.2 °F 30.04 in Calm   1.0 mph 91% 0.00 in
02:02 74.9 °F 72.1 °F 30.04 in SW 1.0 mph 1.0 mph 91% 0.00 in
02:07 74.9 °F 72.1 °F 30.04 in SSW 1.0 mph 1.0 mph 91% 0.00 in
02:12 74.8 °F 72.0 °F 30.04 in Calm   2.0 mph 91% 0.00 in
02:17 74.6 °F 71.8 °F 30.04 in Calm     91% 0.00 in
02:22 74.4 °F 71.6 °F 30.04 in Calm     91% 0.00 in
02:27 74.3 °F 71.8 °F 30.04 in Calm     92% 0.00 in
02:32 74.4 °F 71.9 °F 30.04 in Calm     92% 0.00 in
02:37 74.5 °F 72.0 °F 30.03 in Calm     92% 0.00 in
02:43 74.5 °F 72.0 °F 30.04 in Calm     92% 0.00 in
02:48 74.6 °F 72.1 °F 30.04 in Calm     92% 0.00 in
02:53 74.6 °F 72.1 °F 30.04 in Calm     92% 0.00 in
02:58 74.5 °F 72.0 °F 30.04 in Calm     92% 0.00 in
03:03 74.2 °F 71.7 °F 30.04 in Calm     92% 0.00 in
03:08 74.0 °F 71.5 °F 30.04 in Calm     92% 0.00 in
03:13 73.9 °F 71.4 °F 30.04 in Calm     92% 0.00 in
03:18 73.8 °F 71.3 °F 30.04 in Calm     92% 0.00 in
03:23 73.9 °F 71.4 °F 30.03 in Calm     92% 0.00 in
03:28 73.9 °F 71.4 °F 30.03 in Calm     92% 0.00 in
03:33 74.0 °F 71.5 °F 30.03 in Calm     92% 0.00 in
03:38 74.0 °F 71.5 °F 30.03 in SW 1.0 mph 1.0 mph 92% 0.00 in
03:43 74.1 °F 71.6 °F 30.03 in Calm     92% 0.00 in
03:48 74.1 °F 71.6 °F 30.03 in Calm   1.0 mph 92% 0.00 in
03:53 74.0 °F 71.5 °F 30.03 in Calm     92% 0.00 in
03:58 73.9 °F 71.4 °F 30.03 in Calm     92% 0.00 in
04:03 73.8 °F 71.3 °F 30.03 in Calm     92% 0.00 in
04:08 73.8 °F 71.3 °F 30.03 in Calm   1.0 mph 92% 0.00 in
04:13 73.8 °F 71.3 °F 30.03 in Calm     92% 0.00 in
04:18 73.7 °F 71.2 °F 30.03 in Calm     92% 0.00 in
04:23 73.7 °F 71.2 °F 30.03 in SW 1.0 mph 2.0 mph 92% 0.00 in
04:28 73.7 °F 71.2 °F 30.03 in Calm     92% 0.00 in
04:33 73.7 °F 71.2 °F 30.03 in Calm     92% 0.00 in
04:38 73.7 °F 71.2 °F 30.03 in Calm     92% 0.00 in
04:43 73.6 °F 71.1 °F 30.03 in Calm     92% 0.00 in
04:48 73.5 °F 71.0 °F 30.03 in Calm     92% 0.00 in
04:53 73.4 °F 70.9 °F 30.03 in Calm     92% 0.00 in
04:58 73.4 °F 70.9 °F 30.04 in Calm     92% 0.00 in
05:03 73.5 °F 71.0 °F 30.04 in Calm     92% 0.00 in
05:08 73.5 °F 71.0 °F 30.03 in Calm     92% 0.00 in
05:13 73.4 °F 70.9 °F 30.03 in Calm     92% 0.00 in
05:18 73.5 °F 71.0 °F 30.03 in Calm     92% 0.00 in
05:23 73.4 °F 70.9 °F 30.03 in Calm     92% 0.00 in
05:28 73.4 °F 70.9 °F 30.03 in Calm     92% 0.00 in
05:33 73.2 °F 70.7 °F 30.03 in Calm     92% 0.00 in
05:38 73.1 °F 70.6 °F 30.03 in Calm     92% 0.00 in
05:43 73.1 °F 70.6 °F 30.03 in Calm   1.0 mph 92% 0.00 in
05:48 73.0 °F 70.5 °F 30.03 in Calm   1.0 mph 92% 0.00 in
05:53 73.0 °F 70.5 °F 30.03 in Calm   1.0 mph 92% 0.00 in
05:59 73.1 °F 70.6 °F 30.03 in SW 1.0 mph 1.0 mph 92% 0.00 in
06:04 73.1 °F 70.6 °F 30.03 in Calm   2.0 mph 92% 0.00 in
06:09 73.1 °F 70.6 °F 30.03 in Calm     92% 0.00 in
06:14 73.1 °F 70.6 °F 30.03 in Calm     92% 0.00 in
06:19 73.2 °F 70.7 °F 30.04 in Calm     92% 0.00 in
06:24 73.2 °F 70.7 °F 30.03 in Calm     92% 0.00 in
06:29 73.2 °F 70.7 °F 30.04 in Calm     92% 0.00 in
06:34 73.1 °F 70.6 °F 30.04 in Calm     92% 0.00 in
06:39 73.1 °F 70.6 °F 30.04 in Calm     92% 0.00 in
06:44 73.0 °F 70.5 °F 30.04 in Calm     92% 0.00 in
06:49 72.9 °F 70.4 °F 30.04 in Calm     92% 0.00 in
06:54 72.8 °F 70.3 °F 30.04 in Calm     92% 0.00 in
06:59 72.8 °F 70.3 °F 30.04 in Calm     92% 0.00 in
07:04 72.8 °F 70.3 °F 30.04 in Calm     92% 0.00 in
07:09 72.7 °F 70.2 °F 30.04 in Calm     92% 0.00 in
07:14 72.8 °F 70.3 °F 30.04 in Calm     92% 0.00 in
07:19 72.8 °F 70.3 °F 30.05 in Calm     92% 0.00 in
07:24 72.9 °F 70.4 °F 30.04 in Calm     92% 0.00 in
07:29 73.1 °F 70.6 °F 30.05 in Calm     92% 0.00 in
07:34 73.3 °F 70.8 °F 30.05 in Calm     92% 0.00 in
07:39 73.5 °F 71.0 °F 30.04 in Calm   2.0 mph 92% 0.00 in
07:44 73.8 °F 71.3 °F 30.04 in SW 1.0 mph 1.0 mph 92% 0.00 in
07:49 74.1 °F 71.6 °F 30.05 in Calm   2.0 mph 92% 0.00 in
07:54 74.4 °F 71.9 °F 30.05 in SW 2.0 mph 3.0 mph 92% 0.00 in
07:59 74.7 °F 72.2 °F 30.05 in SW 2.0 mph 2.0 mph 92% 0.00 in
08:04 75.0 °F 72.5 °F 30.05 in WNW 2.0 mph 3.0 mph 92% 0.00 in
08:09 75.3 °F 72.8 °F 30.05 in SW 2.0 mph 3.0 mph 92% 0.00 in
08:14 75.6 °F 73.1 °F 30.05 in WSW 2.0 mph 4.0 mph 92% 0.00 in
08:19 75.9 °F 73.4 °F 30.05 in WSW 1.0 mph 2.0 mph 92% 0.00 in
08:24 76.1 °F 73.6 °F 30.06 in WNW 1.0 mph 3.0 mph 92% 0.00 in
08:29 76.2 °F 73.4 °F 30.06 in SW 3.0 mph 4.0 mph 91% 0.00 in
08:34 76.3 °F 73.5 °F 30.06 in WSW 1.0 mph 4.0 mph 91% 0.00 in
08:39 76.6 °F 73.8 °F 30.06 in West 3.0 mph 4.0 mph 91% 0.00 in
08:44 76.9 °F 74.1 °F 30.06 in WSW 4.0 mph 5.0 mph 91% 0.00 in
08:49 77.3 °F 74.5 °F 30.06 in SW 2.0 mph 4.0 mph 91% 0.00 in
08:54 77.7 °F 74.5 °F 30.06 in West 2.0 mph 6.0 mph 90% 0.00 in
08:59 78.1 °F 74.9 °F 30.06 in West 3.0 mph 4.0 mph 90% 0.00 in
09:04 78.5 °F 75.3 °F 30.06 in West 1.0 mph 4.0 mph 90% 0.00 in
09:09 78.8 °F 75.3 °F 30.07 in SW 2.0 mph 4.0 mph 89% 0.00 in
09:14 79.2 °F 75.3 °F 30.07 in SW 6.0 mph 6.0 mph 88% 0.00 in
09:19 79.4 °F 75.5 °F 30.06 in SW 2.0 mph 6.0 mph 88% 0.00 in
09:24 79.7 °F 75.5 °F 30.06 in West 4.0 mph 5.0 mph 87% 0.00 in
09:29 80.2 °F 75.3 °F 30.06 in SSW 1.0 mph 6.0 mph 85% 0.00 in
09:34 80.5 °F 75.6 °F 30.06 in WSW 4.0 mph 6.0 mph 85% 0.00 in
09:39 80.9 °F 75.6 °F 30.06 in West 2.0 mph 7.0 mph 84% 0.00 in
09:44 81.5 °F 76.2 °F 30.06 in South 3.0 mph 3.0 mph 84% 0.00 in
09:49 81.8 °F 75.8 °F 30.06 in WSW 3.0 mph 7.0 mph 82% 0.00 in
09:54 81.9 °F 75.5 °F 30.06 in West 4.0 mph 9.0 mph 81% 0.00 in
09:59 82.1 °F 75.7 °F 30.06 in West 3.0 mph 7.0 mph 81% 0.00 in
10:04 82.1 °F 75.3 °F 30.06 in WSW 6.0 mph 8.0 mph 80% 0.00 in
10:09 82.4 °F 75.6 °F 30.06 in West 3.0 mph 7.0 mph 80% 0.00 in
10:14 82.7 °F 75.9 °F 30.06 in West 4.0 mph 10.0 mph 80% 0.00 in
10:20 83.0 °F 76.2 °F 30.06 in WNW 2.0 mph 6.0 mph 80% 0.00 in
10:25 83.4 °F 76.2 °F 30.05 in WNW 2.0 mph 8.0 mph 79% 0.00 in
10:30 83.7 °F 76.5 °F 30.05 in NW 5.0 mph 7.0 mph 79% 0.00 in
10:35 84.0 °F 77.5 °F 30.05 in West 3.0 mph 9.0 mph 81% 0.00 in
10:40 84.0 °F 76.0 °F 30.05 in NW 6.0 mph 8.0 mph 77% 0.00 in
10:45 83.9 °F 75.9 °F 30.05 in WNW 7.0 mph 9.0 mph 77% 0.00 in
10:50 83.9 °F 76.3 °F 30.05 in WNW 7.0 mph 9.0 mph 78% 0.00 in
10:55 83.9 °F 76.3 °F 30.05 in WSW 2.0 mph 9.0 mph 78% 0.00 in
11:00 83.7 °F 76.1 °F 30.05 in WSW 10.0 mph 10.0 mph 78% 0.00 in
11:05 83.8 °F 76.2 °F 30.05 in West 5.0 mph 6.0 mph 78% 0.00 in
11:10 84.2 °F 76.2 °F 30.04 in WSW 11.0 mph 11.0 mph 77% 0.00 in
11:15 84.5 °F 76.5 °F 30.04 in WNW 4.0 mph 9.0 mph 77% 0.00 in
11:20 84.6 °F 76.2 °F 30.04 in WSW 4.0 mph 8.0 mph 76% 0.00 in
11:25 84.9 °F 75.7 °F 30.04 in West 8.0 mph 12.0 mph 74% 0.00 in
11:30 84.9 °F 75.7 °F 30.04 in NW 9.0 mph 13.0 mph 74% 0.00 in
11:35 85.2 °F 75.2 °F 30.04 in WNW 7.0 mph 10.0 mph 72% 0.00 in
11:40 85.3 °F 75.2 °F 30.04 in West 6.0 mph 9.0 mph 72% 0.00 in
11:45 85.1 °F 75.5 °F 30.03 in West 4.0 mph 10.0 mph 73% 0.00 in
11:50 85.4 °F 76.6 °F 30.03 in West 2.0 mph 9.0 mph 75% 0.00 in
11:55 86.3 °F 76.6 °F 30.03 in West 6.0 mph 6.0 mph 73% 0.00 in
12:00 86.3 °F 75.8 °F 30.03 in SW 5.0 mph 7.0 mph 71% 0.00 in
12:05 86.1 °F 74.8 °F 30.03 in WSW 7.0 mph 11.0 mph 69% 0.00 in
12:10 86.3 °F 75.8 °F 30.03 in WNW 8.0 mph 9.0 mph 71% 0.00 in
12:15 86.6 °F 76.1 °F 30.03 in West 3.0 mph 6.0 mph 71% 0.00 in
12:20 86.8 °F 76.3 °F 30.03 in West 4.0 mph 7.0 mph 71% 0.00 in
12:25 86.5 °F 75.6 °F 30.03 in WSW 5.0 mph 8.0 mph 70% 0.00 in
12:30 86.1 °F 76.0 °F 30.03 in West 5.0 mph 5.0 mph 72% 0.00 in
12:35 86.4 °F 75.5 °F 30.03 in West 1.0 mph 7.0 mph 70% 0.00 in
12:40 86.1 °F 75.2 °F 30.03 in West 7.0 mph 7.0 mph 70% 0.00 in
12:45 86.2 °F 74.8 °F 30.03 in WSW 7.0 mph 8.0 mph 69% 0.00 in
12:50 86.7 °F 74.4 °F 30.03 in SW 7.0 mph 7.0 mph 67% 0.00 in
12:55 86.6 °F 74.8 °F 30.02 in SW 4.0 mph 12.0 mph 68% 0.00 in
13:00 86.5 °F 74.7 °F 30.02 in West 4.0 mph 7.0 mph 68% 0.00 in
13:05 87.2 °F 75.8 °F 30.02 in WNW 6.0 mph 7.0 mph 69% 0.00 in
13:10 86.7 °F 75.3 °F 30.02 in WSW 5.0 mph 8.0 mph 69% 0.00 in
13:15 86.5 °F 76.4 °F 30.02 in WSW 7.0 mph 10.0 mph 72% 0.00 in
13:20 87.1 °F 76.1 °F 30.01 in WNW 6.0 mph 10.0 mph 70% 0.00 in
13:25 87.6 °F 77.0 °F 30.01 in West 3.0 mph 7.0 mph 71% 0.00 in
13:30 87.7 °F 76.3 °F 30.01 in West 4.0 mph 7.0 mph 69% 0.00 in
13:35 88.0 °F 76.6 °F 30.01 in WNW 3.0 mph 12.0 mph 69% 0.00 in
13:40 88.0 °F 75.2 °F 30.01 in West 7.0 mph 11.0 mph 66% 0.00 in
13:45 87.9 °F 76.5 °F 30.00 in NW 4.0 mph 10.0 mph 69% 0.00 in
13:50 88.0 °F 74.8 °F 30.01 in SW 5.0 mph 11.0 mph 65% 0.00 in
13:55 88.1 °F 75.8 °F 30.00 in WNW 7.0 mph 9.0 mph 67% 0.00 in
14:00 88.3 °F 76.4 °F 30.00 in WSW 1.0 mph 5.0 mph 68% 0.00 in
14:05 88.1 °F 76.2 °F 30.00 in West 5.0 mph 7.0 mph 68% 0.00 in
14:10 88.3 °F 75.5 °F 30.00 in WSW 8.0 mph 11.0 mph 66% 0.00 in
14:15 88.5 °F 77.0 °F 30.00 in SW 4.0 mph 8.0 mph 69% 0.00 in
14:21 89.0 °F 77.1 °F 29.99 in West 7.0 mph 9.0 mph 68% 0.00 in
14:26 88.9 °F 75.6 °F 29.99 in WNW 4.0 mph 9.0 mph 65% 0.00 in
14:31 89.2 °F 75.9 °F 29.99 in NW 2.0 mph 8.0 mph 65% 0.00 in
14:36 89.2 °F 73.5 °F 29.99 in SW 3.0 mph 11.0 mph 60% 0.00 in
14:41 89.3 °F 75.5 °F 29.99 in WNW 6.0 mph 7.0 mph 64% 0.00 in
14:46 89.2 °F 75.4 °F 29.99 in SW 7.0 mph 8.0 mph 64% 0.00 in
14:51 88.9 °F 75.2 °F 29.99 in WNW 6.0 mph 8.0 mph 64% 0.00 in
14:56 89.0 °F 75.2 °F 29.99 in West 3.0 mph 7.0 mph 64% 0.00 in
15:01 89.3 °F 74.6 °F 29.98 in West 4.0 mph 5.0 mph 62% 0.00 in
15:06 89.7 °F 75.9 °F 29.98 in SW 11.0 mph 12.0 mph 64% 0.00 in
15:11 89.5 °F 74.8 °F 29.98 in SW 8.0 mph 9.0 mph 62% 0.00 in
15:16 89.1 °F 74.4 °F 29.98 in West 5.0 mph 10.0 mph 62% 0.00 in
15:21 89.2 °F 75.4 °F 29.97 in West 11.0 mph 11.0 mph 64% 0.00 in
15:27 89.6 °F 75.3 °F 29.97 in WNW 5.0 mph 6.0 mph 63% 0.00 in
15:32 90.1 °F 75.8 °F 29.97 in West 5.0 mph 8.0 mph 63% 0.00 in
15:37 90.2 °F 74.4 °F 29.97 in West 4.0 mph 10.0 mph 60% 0.00 in
15:42 90.0 °F 75.2 °F 29.97 in Calm   4.0 mph 62% 0.00 in
15:47 90.0 °F 76.2 °F 29.96 in WSW 10.0 mph 10.0 mph 64% 0.00 in
15:52 89.8 °F 74.1 °F 29.96 in WSW 4.0 mph 8.0 mph 60% 0.00 in
15:57 90.0 °F 74.8 °F 29.96 in SW 8.0 mph 8.0 mph 61% 0.00 in
16:02 89.5 °F 74.3 °F 29.96 in West 2.0 mph 5.0 mph 61% 0.00 in
16:07 88.9 °F 74.2 °F 29.96 in NW 5.0 mph 6.0 mph 62% 0.00 in
16:12 89.0 °F 74.3 °F 29.96 in WSW 3.0 mph 5.0 mph 62% 0.00 in
16:17 89.6 °F 78.1 °F 29.95 in WNW 5.0 mph 6.0 mph 69% 0.00 in
16:22 89.9 °F 76.1 °F 29.95 in WNW 3.0 mph 6.0 mph 64% 0.00 in
16:27 90.0 °F 75.7 °F 29.95 in WSW 8.0 mph 8.0 mph 63% 0.00 in
16:32 90.3 °F 76.0 °F 29.95 in WSW 5.0 mph 8.0 mph 63% 0.00 in
16:37 90.4 °F 75.1 °F 29.95 in WSW 6.0 mph 8.0 mph 61% 0.00 in
16:42 90.4 °F 74.6 °F 29.95 in WSW 5.0 mph 8.0 mph 60% 0.00 in
16:47 90.2 °F 74.4 °F 29.95 in WSW 3.0 mph 9.0 mph 60% 0.00 in
16:52 90.5 °F 75.2 °F 29.95 in SW 4.0 mph 7.0 mph 61% 0.00 in
16:57 90.5 °F 75.7 °F 29.94 in WSW 6.0 mph 9.0 mph 62% 0.00 in
17:02 90.0 °F 75.2 °F 29.94 in West 3.0 mph 5.0 mph 62% 0.00 in
17:07 90.0 °F 74.3 °F 29.94 in SW 5.0 mph 5.0 mph 60% 0.00 in
17:12 90.3 °F 75.5 °F 29.94 in West 4.0 mph 8.0 mph 62% 0.00 in
17:17 90.6 °F 76.3 °F 29.94 in WNW 3.0 mph 5.0 mph 63% 0.00 in
17:23 90.5 °F 76.2 °F 29.94 in SW 3.0 mph 5.0 mph 63% 0.00 in
17:28 90.6 °F 74.3 °F 29.94 in West 3.0 mph 7.0 mph 59% 0.00 in
17:33 90.6 °F 74.3 °F 29.94 in West 4.0 mph 9.0 mph 59% 0.00 in
17:38 90.5 °F 74.7 °F 29.93 in WSW 6.0 mph 9.0 mph 60% 0.00 in
17:43 90.5 °F 74.2 °F 29.93 in West 4.0 mph 5.0 mph 59% 0.00 in
17:48 90.5 °F 74.2 °F 29.93 in West 6.0 mph 8.0 mph 59% 0.00 in
17:53 90.4 °F 75.6 °F 29.93 in NW 2.0 mph 5.0 mph 62% 0.00 in
17:58 90.5 °F 74.7 °F 29.93 in West 5.0 mph 7.0 mph 60% 0.00 in
18:03 90.7 °F 75.4 °F 29.93 in SW 2.0 mph 5.0 mph 61% 0.00 in
18:08 90.8 °F 74.5 °F 29.93 in West 4.0 mph 6.0 mph 59% 0.00 in
18:13 90.6 °F 74.8 °F 29.93 in SW 1.0 mph 5.0 mph 60% 0.00 in
18:18 90.6 °F 74.3 °F 29.92 in West 5.0 mph 5.0 mph 59% 0.00 in
18:23 90.5 °F 74.2 °F 29.92 in West 1.0 mph 4.0 mph 59% 0.00 in
18:28 90.8 °F 75.0 °F 29.92 in WNW 2.0 mph 3.0 mph 60% 0.00 in
18:33 90.7 °F 74.9 °F 29.92 in WSW 2.0 mph 6.0 mph 60% 0.00 in
18:38 90.5 °F 75.2 °F 29.92 in West 2.0 mph 6.0 mph 61% 0.00 in
18:43 89.9 °F 74.2 °F 29.92 in SW 6.0 mph 6.0 mph 60% 0.00 in
18:48 89.9 °F 75.6 °F 29.92 in West 1.0 mph 2.0 mph 63% 0.00 in
18:53 90.4 °F 75.6 °F 29.92 in West 2.0 mph 3.0 mph 62% 0.00 in
18:58 90.6 °F 74.8 °F 29.91 in West 1.0 mph 3.0 mph 60% 0.00 in
19:03 90.8 °F 76.0 °F 29.91 in SW 4.0 mph 4.0 mph 62% 0.00 in
19:08 90.7 °F 74.4 °F 29.91 in WSW 4.0 mph 4.0 mph 59% 0.00 in
19:13 90.8 °F 75.5 °F 29.91 in WNW 2.0 mph 3.0 mph 61% 0.00 in
19:18 90.9 °F 74.1 °F 29.91 in SW 3.0 mph 6.0 mph 58% 0.00 in
19:23 90.8 °F 75.0 °F 29.91 in SW 3.0 mph 3.0 mph 60% 0.00 in
19:28 90.6 °F 74.8 °F 29.91 in WSW 2.0 mph 5.0 mph 60% 0.00 in
19:33 90.3 °F 74.5 °F 29.91 in WSW 3.0 mph 4.0 mph 60% 0.00 in
19:38 90.0 °F 75.2 °F 29.91 in West 1.0 mph 4.0 mph 62% 0.00 in
19:43 89.8 °F 75.1 °F 29.91 in SSW 2.0 mph 5.0 mph 62% 0.00 in
19:48 89.6 °F 76.7 °F 29.91 in SSE 2.0 mph 3.0 mph 66% 0.00 in
19:53 89.5 °F 76.2 °F 29.91 in SW 1.0 mph 3.0 mph 65% 0.00 in
19:58 89.3 °F 76.0 °F 29.92 in SW 2.0 mph 2.0 mph 65% 0.00 in
20:03 88.9 °F 76.5 °F 29.92 in SW 2.0 mph 2.0 mph 67% 0.00 in
20:08 88.3 °F 76.0 °F 29.92 in SSW 2.0 mph 4.0 mph 67% 0.00 in
20:13 87.6 °F 76.2 °F 29.92 in SW 1.0 mph 3.0 mph 69% 0.00 in
20:18 87.1 °F 76.6 °F 29.92 in SW 1.0 mph 2.0 mph 71% 0.00 in
20:24 87.0 °F 76.5 °F 29.92 in SW 1.0 mph 2.0 mph 71% 0.00 in
20:29 86.9 °F 76.4 °F 29.92 in SW 1.0 mph 1.0 mph 71% 0.00 in
20:34 86.9 °F 76.8 °F 29.93 in Calm   2.0 mph 72% 0.00 in
20:40 86.8 °F 76.7 °F 29.93 in Calm   1.0 mph 72% 0.00 in
20:45 86.5 °F 76.4 °F 29.93 in Calm   1.0 mph 72% 0.00 in
20:50 86.1 °F 76.4 °F 29.93 in Calm     73% 0.00 in
20:55 85.7 °F 76.5 °F 29.94 in Calm     74% 0.00 in
21:00 85.1 °F 76.7 °F 29.94 in Calm     76% 0.00 in
21:05 84.6 °F 76.6 °F 29.93 in Calm     77% 0.00 in
21:10 84.1 °F 76.5 °F 29.93 in Calm     78% 0.00 in
21:15 83.6 °F 77.5 °F 29.93 in Calm     82% 0.00 in
21:20 83.1 °F 77.0 °F 29.93 in Calm     82% 0.00 in
21:25 82.7 °F 76.3 °F 29.93 in Calm     81% 0.00 in
21:30 82.3 °F 76.6 °F 29.93 in Calm     83% 0.00 in
21:35 82.0 °F 76.3 °F 29.93 in Calm     83% 0.00 in
21:40 81.7 °F 76.4 °F 29.93 in Calm     84% 0.00 in
21:45 81.5 °F 76.2 °F 29.93 in SW 1.0 mph 2.0 mph 84% 0.00 in
21:50 81.4 °F 76.1 °F 29.93 in SW 1.0 mph 2.0 mph 84% 0.00 in
21:55 81.3 °F 75.7 °F 29.93 in SW 1.0 mph 2.0 mph 83% 0.00 in
22:00 81.2 °F 75.6 °F 29.92 in SW 2.0 mph 2.0 mph 83% 0.00 in
22:05 81.0 °F 75.7 °F 29.93 in SW 1.0 mph 2.0 mph 84% 0.00 in
22:10 80.9 °F 75.6 °F 29.93 in WSW 1.0 mph 2.0 mph 84% 0.00 in
22:15 81.1 °F 75.8 °F 29.93 in WSW 2.0 mph 3.0 mph 84% 0.00 in
22:20 81.1 °F 75.8 °F 29.93 in SW 1.0 mph 3.0 mph 84% 0.00 in
22:25 80.9 °F 75.6 °F 29.93 in SW 1.0 mph 2.0 mph 84% 0.00 in
22:30 80.6 °F 75.7 °F 29.93 in SW 2.0 mph 2.0 mph 85% 0.00 in
22:36 80.5 °F 75.6 °F 29.93 in SSW 2.0 mph 2.0 mph 85% 0.00 in
22:41 80.2 °F 75.3 °F 29.93 in Calm   2.0 mph 85% 0.00 in
22:46 80.1 °F 75.2 °F 29.93 in SSW 3.0 mph 3.0 mph 85% 0.00 in
22:51 79.9 °F 75.0 °F 29.93 in SW 2.0 mph 2.0 mph 85% 0.00 in
22:56 79.9 °F 75.3 °F 29.93 in SW 1.0 mph 2.0 mph 86% 0.00 in
23:01 79.9 °F 75.3 °F 29.93 in SW 2.0 mph 2.0 mph 86% 0.00 in
23:06 79.6 °F 75.1 °F 29.92 in SW 2.0 mph 3.0 mph 86% 0.00 in
23:11 79.5 °F 74.9 °F 29.93 in SW 2.0 mph 2.0 mph 86% 0.00 in
23:16 79.4 °F 74.8 °F 29.93 in SW 1.0 mph 2.0 mph 86% 0.00 in
23:21 79.4 °F 74.8 °F 29.93 in SW 2.0 mph 3.0 mph 86% 0.00 in
23:26 79.3 °F 74.8 °F 29.93 in SW 1.0 mph 2.0 mph 86% 0.00 in
23:31 79.2 °F 74.7 °F 29.93 in WSW 1.0 mph 2.0 mph 86% 0.00 in
23:36 79.2 °F 74.7 °F 29.93 in Calm   1.0 mph 86% 0.00 in
23:41 79.1 °F 74.6 °F 29.93 in Calm   1.0 mph 86% 0.00 in
23:46 78.9 °F 74.4 °F 29.92 in SW 1.0 mph 1.0 mph 86% 0.00 in
23:51 78.7 °F 74.2 °F 29.92 in Calm   1.0 mph 86% 0.00 in
23:56 78.5 °F 74.3 °F 29.92 in SW 1.0 mph 2.0 mph 87% 0.00 in
Compliments of Weather Underground